Главная страница
METAR-TAF:

METAR-TAF

Аэропорты :

Канзас-Сити, Миссури, США

широта: 39-17-50N, долгота: 094-43-50W, высота над уровнем моря: 312 м

Текущие метеонаблюдения

Эта сводка был подготовлена 13 минут назад, в 00:53 UTC
Ветер 4 Узел от юго-западный
Температура 3°C
Влажность 75%
Давление 1028 hPa
Видимость: 16.1 км
ясное небо

METAR: KMCI 160053Z 22004KT 10SM CLR 03/M01 A3035 RMK AO2 SLP285 T00281011

Время: 20:06 (01:06 UTC)

Прогноз

Эта сводка был подготовлена 1 час и 46 минут назад, в 23:20 UTC
Прогноз действительный с 16-го 00 UTC до 16-го 24 UTC
Ветер 4 Узел переменных направлений
Видимость: 10 км
ясное небо
С 16-го 1500 UTC
Ветер 8 Узел от юго-западный
Видимость: 10 км
ясное небо

TAF: KMCI 152320Z 1600/1624 VRB04KT P6SM SKC FM161500 23008KT P6SM SKC

Метеонаблюдения и прогнозы для более 4000 аэропортов (сводки METAR и TAF).

Имеющиеся станции представлены на карте желтыми и красными точками.

Чтобы увидеть название станции, наведите на нее мышь.

Затем щелкните, чтобы увидеть метеонаблюдения и метеопрогнозы.

Управление картой: чтобы увеличить масштаб, щелкните зеленые кнопки с черным крестиком; чтобы уменьшить масштаб, щелкните зеленую кнопку с тире; для просмотра соседних карт щелкайте зеленые стрелки.


METAR-TAF: